Time;durP1;ratioP1;P1;durP2;ratioP2;P2;SDS_P1;SDS_P2;PMS_P1;PMS_P2;Temp;Humidity;BMP_temperature;BMP_pressure;BME280_temperature;BME280_humidity;BME280_pressure;Samples;Min_cycle;Max_cycle;Signal;HPM_P1;HPM_P2
2023/06/03 00:01:04;;;;;;;22.48;12.60;;;;;;;-144.30;68.18;85026.69;5131134;27;20277;-58
2023/06/03 00:03:31;;;;;;;14.60;12.45;;;;;;;-144.30;67.95;85026.69;5131111;27;20190;-59
2023/06/03 00:05:59;;;;;;;18.05;12.13;;;;;;;-144.30;67.60;85028.69;5131015;27;20205;-57
2023/06/03 00:08:25;;;;;;;17.42;11.50;;;;;;;-144.30;67.18;85026.69;5131948;27;20193;-57
2023/06/03 00:10:52;;;;;;;13.77;11.32;;;;;;;-144.30;67.54;85036.63;5127048;27;20209;-58
2023/06/03 00:13:21;;;;;;;16.83;11.88;;;;;;;-144.30;67.75;85010.78;5113985;28;20230;-57
2023/06/03 00:15:48;;;;;;;12.63;11.32;;;;;;;-144.30;67.82;85056.50;5113917;28;20191;-58
2023/06/03 00:18:15;;;;;;;13.45;11.95;;;;;;;-144.30;68.09;84998.88;5113783;28;20210;-58
2023/06/03 00:20:47;;;;;;;14.98;10.98;;;;;;;-144.30;68.08;85046.56;5113749;28;20265;-57
2023/06/03 00:23:14;;;;;;;15.65;11.98;;;;;;;-144.30;68.38;85018.75;5113790;28;20205;-58
2023/06/03 00:25:41;;;;;;;12.77;11.18;;;;;;;-144.30;68.11;85046.56;5113514;28;20218;-58
2023/06/03 00:28:08;;;;;;;13.88;10.35;;;;;;;-144.30;68.00;85034.66;5113553;28;20199;-58
2023/06/03 00:30:36;;;;;;;13.10;11.05;;;;;;;-144.30;67.44;85018.75;5113943;28;20656;-58
2023/06/03 00:33:03;;;;;;;15.38;10.70;;;;;;;-144.30;67.13;85038.63;5113496;28;20198;-58
2023/06/03 00:35:30;;;;;;;12.02;9.60;;;;;;;-144.30;67.02;85022.72;5113595;28;20204;-57
2023/06/03 00:37:57;;;;;;;10.88;9.77;;;;;;;-144.30;67.33;84996.88;5113693;28;20209;-57
2023/06/03 00:40:24;;;;;;;13.68;10.45;;;;;;;-144.30;68.23;85030.66;5113336;28;20209;-57
2023/06/03 00:42:51;;;;;;;15.32;10.25;;;;;;;-144.30;67.76;85030.66;5113237;28;20191;-58
2023/06/03 00:45:18;;;;;;;11.23;9.35;;;;;;;-144.30;67.53;85060.50;5113247;28;20222;-57
2023/06/03 00:47:47;;;;;;;12.48;9.43;;;;;;;-144.30;67.32;85086.31;5112225;28;20753;-57
2023/06/03 00:50:15;;;;;;;10.23;9.20;;;;;;;-144.30;67.33;85078.38;5112441;28;20203;-57
2023/06/03 00:52:44;;;;;;;11.15;9.95;;;;;;;-144.30;67.19;85074.41;5113191;28;20706;-57
2023/06/03 00:55:11;;;;;;;9.85;9.02;;;;;;;-144.30;67.09;85056.50;5112769;28;20227;-57
2023/06/03 00:57:38;;;;;;;11.80;9.55;;;;;;;-144.30;66.54;85060.50;5113315;28;20628;-59
2023/06/03 01:00:06;;;;;;;9.80;8.90;;;;;;;-144.30;65.89;85076.38;5113053;28;20245;-59
2023/06/03 01:02:36;;;;;;;13.63;10.05;;;;;;;-144.30;65.53;85062.47;5113119;28;20711;-58
2023/06/03 01:05:05;;;;;;;14.63;10.02;;;;;;;-144.30;65.52;85066.44;5112384;28;20230;-59
2023/06/03 01:07:42;;;;;;;12.85;9.43;;;;;;;-144.30;65.40;85078.38;5112805;28;20255;-59
2023/06/03 01:10:18;;;;;;;13.52;10.23;;;;;;;-144.30;65.20;85130.06;5112843;28;20195;-59
2023/06/03 01:12:52;;;;;;;10.85;9.50;;;;;;;-144.30;65.19;85068.44;5113047;28;20202;-58
2023/06/03 01:15:23;;;;;;;12.93;9.68;;;;;;;-144.30;65.07;85052.53;5112994;28;20224;-58
2023/06/03 01:17:53;;;;;;;10.05;8.80;;;;;;;-144.30;64.69;85090.31;5112703;28;20198;-59
2023/06/03 01:20:26;;;;;;;11.18;9.27;;;;;;;-144.30;64.59;85110.19;5112649;28;20191;-58
2023/06/03 01:22:58;;;;;;;12.00;9.55;;;;;;;-144.30;64.50;85060.50;5112231;28;20238;-57
2023/06/03 01:25:28;;;;;;;10.63;9.30;;;;;;;-144.30;64.35;85046.56;5112167;28;20194;-57
2023/06/03 01:27:57;;;;;;;11.23;8.65;;;;;;;-144.30;63.88;85042.59;5112220;28;20280;-57
2023/06/03 01:30:24;;;;;;;9.38;8.13;;;;;;;-144.30;63.54;85040.59;5112416;28;20209;-58
2023/06/03 01:32:52;;;;;;;9.32;8.43;;;;;;;-144.30;63.61;85088.31;5112434;28;20285;-58
2023/06/03 01:35:20;;;;;;;9.18;8.32;;;;;;;-144.30;63.65;85104.22;5112637;28;20324;-58
2023/06/03 01:37:47;;;;;;;9.85;8.52;;;;;;;-144.30;63.71;85110.19;5112205;28;20195;-59
2023/06/03 01:40:15;;;;;;;9.45;7.50;;;;;;;-144.30;63.87;85096.25;5112236;28;20254;-58
2023/06/03 01:42:43;;;;;;;9.52;7.82;;;;;;;-144.30;63.70;85090.31;5112185;28;20573;-59
2023/06/03 01:45:11;;;;;;;8.88;8.02;;;;;;;-144.30;64.21;85108.19;5111951;28;20683;-58
2023/06/03 01:47:38;;;;;;;9.02;8.20;;;;;;;-144.30;64.87;85118.13;5130194;27;20628;-57
2023/06/03 01:50:05;;;;;;;9.43;7.80;;;;;;;-144.30;65.06;85086.31;5132842;27;20566;-59
2023/06/03 01:52:32;;;;;;;10.95;8.73;;;;;;;-144.30;65.01;85118.13;5132746;27;20593;-59
2023/06/03 01:54:59;;;;;;;9.23;8.20;;;;;;;-144.30;65.30;85114.16;5132613;27;20245;-59
2023/06/03 01:57:26;;;;;;;10.38;8.05;;;;;;;-144.30;65.68;85145.97;5132619;27;20198;-59
2023/06/03 01:59:55;;;;;;;8.55;7.85;;;;;;;-144.30;65.87;85134.03;5132530;27;20198;-59
2023/06/03 02:02:22;;;;;;;17.05;8.38;;;;;;;-144.30;65.66;85141.97;5132727;27;20569;-58
2023/06/03 02:04:49;;;;;;;10.32;8.55;;;;;;;-144.30;66.20;85147.94;5132543;27;20194;-58
2023/06/03 02:07:17;;;;;;;10.05;8.07;;;;;;;-144.30;66.80;85171.81;5132552;27;20194;-58
2023/06/03 02:09:45;;;;;;;9.48;8.55;;;;;;;-144.30;67.41;85143.97;5132325;27;20202;-57
2023/06/03 02:12:12;;;;;;;12.73;8.43;;;;;;;-144.30;67.65;85155.91;5132239;27;20201;-59
2023/06/03 02:14:39;;;;;;;11.48;8.43;;;;;;;-144.30;68.25;85165.84;5132574;27;20603;-58
2023/06/03 02:17:08;;;;;;;9.77;8.65;;;;;;;-144.30;68.98;85151.94;5132373;27;20237;-58
2023/06/03 02:19:35;;;;;;;9.50;8.70;;;;;;;-144.30;69.54;85189.69;5132404;27;20197;-58
2023/06/03 02:22:02;;;;;;;9.18;8.02;;;;;;;-144.30;69.98;85171.81;5132276;27;20249;-57
2023/06/03 02:24:31;;;;;;;9.05;8.32;;;;;;;-144.30;70.19;85261.25;5132144;27;20193;-57
2023/06/03 02:27:01;;;;;;;12.18;9.07;;;;;;;-144.30;70.62;85229.44;5132327;27;20635;-58
2023/06/03 02:29:29;;;;;;;10.00;8.45;;;;;;;-144.30;70.84;85197.66;5132499;27;20216;-58
2023/06/03 02:31:57;;;;;;;9.25;8.43;;;;;;;-144.30;71.11;85217.53;5131347;27;20256;-57
2023/06/03 02:34:26;;;;;;;9.75;8.07;;;;;;;-144.30;71.64;85205.59;5131953;27;20222;-57
2023/06/03 02:36:53;;;;;;;11.37;8.90;;;;;;;-144.30;71.60;85193.66;5131886;27;20659;-56
2023/06/03 02:39:20;;;;;;;11.90;7.97;;;;;;;-144.30;72.18;85233.44;5131926;27;20197;-56
2023/06/03 02:41:48;;;;;;;9.17;8.23;;;;;;;-144.30;72.32;85221.50;5131795;27;20201;-56
2023/06/03 02:44:16;;;;;;;11.55;8.77;;;;;;;-144.30;72.73;85205.59;5131960;27;20254;-56
2023/06/03 02:46:43;;;;;;;13.17;7.77;;;;;;;-144.30;72.76;85195.66;5131751;27;20234;-57
2023/06/03 02:49:10;;;;;;;20.15;8.85;;;;;;;-144.30;72.92;85231.44;5131857;27;20204;-57
2023/06/03 02:51:39;;;;;;;9.80;8.73;;;;;;;-144.30;73.57;85243.38;5131909;27;20229;-58
2023/06/03 02:54:07;;;;;;;12.60;8.80;;;;;;;-144.30;73.50;85221.50;5131635;27;20228;-58
2023/06/03 02:56:34;;;;;;;8.80;8.02;;;;;;;-144.30;73.33;85217.53;5131762;27;20293;-57
2023/06/03 02:59:01;;;;;;;9.32;8.38;;;;;;;-144.30;73.36;85243.38;5131985;27;20212;-57
2023/06/03 03:01:29;;;;;;;13.37;9.20;;;;;;;-144.30;73.07;85249.34;5131496;27;20193;-56
2023/06/03 03:03:56;;;;;;;8.63;7.82;;;;;;;-144.30;73.03;85211.56;5131387;27;20194;-57
2023/06/03 03:06:24;;;;;;;9.07;8.25;;;;;;;-144.30;72.79;85205.59;5132062;27;20216;-60
2023/06/03 03:08:53;;;;;;;8.53;7.83;;;;;;;-144.30;73.07;85227.47;5131981;27;20198;-59
2023/06/03 03:11:20;;;;;;;12.17;7.80;;;;;;;-144.30;73.49;85233.44;5131780;27;20236;-59
2023/06/03 03:13:48;;;;;;;11.50;8.27;;;;;;;-144.30;73.10;85171.81;5131581;27;20284;-58
2023/06/03 03:16:15;;;;;;;8.60;7.63;;;;;;;-144.30;72.83;85207.59;5131668;27;20665;-58
2023/06/03 03:18:42;;;;;;;11.07;7.97;;;;;;;-144.30;71.83;85088.31;5131651;27;20293;-59
2023/06/03 03:21:09;;;;;;;8.20;7.43;;;;;;;-144.30;71.54;85229.44;5131645;27;20232;-59
2023/06/03 03:23:36;;;;;;;8.48;7.78;;;;;;;-144.30;70.49;85191.69;5130870;27;20216;-58
2023/06/03 03:26:11;;;;;;;9.07;8.27;;;;;;;-144.30;70.07;85223.47;5130808;27;20182;-56
2023/06/03 03:28:38;;;;;;;8.88;8.00;;;;;;;-144.30;69.80;85181.75;5131465;27;20198;-57
2023/06/03 03:31:05;;;;;;;8.63;7.78;;;;;;;-144.30;70.02;85189.69;5131005;27;20224;-57
2023/06/03 03:33:32;;;;;;;8.95;7.78;;;;;;;-144.30;69.61;85157.88;5131336;27;20194;-58
2023/06/03 03:36:08;;;;;;;8.57;7.75;;;;;;;-144.30;69.03;85088.31;5131197;27;20221;-57
2023/06/03 03:38:37;;;;;;;12.80;7.72;;;;;;;-144.30;68.50;85157.88;5131672;27;20190;-58
2023/06/03 03:41:06;;;;;;;8.43;7.22;;;;;;;-144.30;68.11;85165.84;5131153;27;20193;-58
2023/06/03 03:43:34;;;;;;;8.63;7.82;;;;;;;-144.30;67.74;85112.16;5133552;27;20655;-57
2023/06/03 03:46:01;;;;;;;7.95;7.30;;;;;;;-144.30;66.72;85074.41;5135012;27;20194;-58
2023/06/03 03:48:30;;;;;;;8.35;7.65;;;;;;;-144.30;65.94;85066.44;5135056;27;20198;-58
2023/06/03 03:50:57;;;;;;;9.20;7.30;;;;;;;-144.30;64.78;85038.63;5135447;27;20197;-58
2023/06/03 03:53:28;;;;;;;8.10;7.40;;;;;;;-144.30;63.05;84959.13;5134950;27;20571;-57
2023/06/03 03:55:57;;;;;;;7.72;6.80;;;;;;;-144.30;61.54;84935.25;5134958;27;20717;-59
2023/06/03 03:58:30;;;;;;;7.65;6.93;;;;;;;-144.30;60.04;84869.66;5131302;27;20985;-59
2023/06/03 04:01:00;;;;;;;8.45;7.30;;;;;;;-144.30;59.42;84867.69;5129709;27;20232;-59
2023/06/03 04:03:29;;;;;;;7.57;7.03;;;;;;;-144.30;58.78;84847.81;5132150;27;20258;-59
2023/06/03 04:05:57;;;;;;;8.90;7.15;;;;;;;-144.30;58.13;84796.13;5133988;27;20255;-59
2023/06/03 04:08:38;;;;;;;8.07;7.38;;;;;;;-144.30;57.36;84796.13;5135238;27;21254;-56
2023/06/03 04:11:07;;;;;;;10.00;7.45;;;;;;;-144.30;56.40;84794.13;5134101;27;20627;-57
2023/06/03 04:13:38;;;;;;;7.90;7.13;;;;;;;-144.30;56.29;84812.03;5133334;27;20194;-56
2023/06/03 04:16:10;;;;;;;9.48;6.90;;;;;;;-144.30;55.93;84778.25;5133867;27;20289;-57
2023/06/03 04:18:43;;;;;;;7.32;6.60;;;;;;;-144.30;55.47;84718.63;5134231;27;20241;-56
2023/06/03 04:21:14;;;;;;;9.38;7.00;;;;;;;-144.30;54.48;84684.81;5133798;27;20201;-57
2023/06/03 04:23:42;;;;;;;8.38;7.43;;;;;;;-144.30;53.04;84587.44;5133946;27;20208;-57
2023/06/03 04:26:09;;;;;;;7.63;7.00;;;;;;;-144.30;53.02;84605.31;5133759;27;20219;-58
2023/06/03 04:28:39;;;;;;;7.85;7.15;;;;;;;-144.30;52.45;84583.47;5132684;27;21601;-57
2023/06/03 04:31:06;;;;;;;10.00;7.10;;;;;;;-144.30;52.03;84587.44;5132924;27;20190;-57
2023/06/03 04:33:33;;;;;;;7.93;7.22;;;;;;;-144.30;51.18;84505.94;5128872;27;20274;-57
2023/06/03 04:36:00;;;;;;;9.07;7.05;;;;;;;-144.30;49.63;84440.38;5132228;27;20263;-58
2023/06/03 04:38:28;;;;;;;7.28;6.78;;;;;;;-144.30;49.06;84422.47;5132356;27;20202;-57
2023/06/03 04:40:55;;;;;;;7.65;6.90;;;;;;;-144.30;47.88;84329.06;5134144;27;20202;-57
2023/06/03 04:43:22;;;;;;;8.35;7.57;;;;;;;-144.30;46.42;84195.94;5133925;27;20194;-57
2023/06/03 04:45:51;;;;;;;10.65;7.45;;;;;;;-144.30;44.71;84122.41;5134068;27;20261;-58
2023/06/03 04:48:22;;;;;;;8.90;6.63;;;;;;;-144.30;43.19;83989.25;5126633;27;20252;-58
2023/06/03 04:50:49;;;;;;;8.05;7.30;;;;;;;-144.30;42.48;83947.53;5113405;28;20206;-57
2023/06/03 04:53:16;;;;;;;8.32;7.72;;;;;;;-144.30;41.65;83885.94;5113560;28;20198;-58
2023/06/03 04:55:44;;;;;;;7.28;6.78;;;;;;;-144.30;41.09;83895.88;5112574;28;20228;-58
2023/06/03 04:58:12;;;;;;;8.43;7.57;;;;;;;-144.30;40.30;83834.25;5113306;28;20720;-57
2023/06/03 05:00:40;;;;;;;7.85;7.13;;;;;;;-144.30;40.07;83782.59;5117570;27;20203;-57
2023/06/03 05:03:09;;;;;;;8.48;7.07;;;;;;;-144.30;38.86;83593.84;5133267;27;20201;-57
2023/06/03 05:05:42;;;;;;;9.38;7.00;;;;;;;-144.30;37.85;83478.59;5133385;27;20559;-57
2023/06/03 05:08:10;;;;;;;10.43;7.60;;;;;;;-144.30;36.60;83401.13;5133193;27;20193;-57
2023/06/03 05:10:37;;;;;;;11.43;7.40;;;;;;;-144.30;35.85;83260.06;5133291;27;20190;-57
2023/06/03 05:13:05;;;;;;;7.72;7.05;;;;;;;-144.30;35.15;83202.44;5133101;27;20670;-58
2023/06/03 05:15:33;;;;;;;8.95;7.22;;;;;;;-144.30;35.59;83204.44;5133000;27;20216;-57
2023/06/03 05:18:00;;;;;;;7.68;7.03;;;;;;;-144.30;34.93;83113.03;5133088;27;20682;-59
2023/06/03 05:20:29;;;;;;;8.05;7.35;;;;;;;-144.30;35.17;83254.09;5133227;27;20259;-58
2023/06/03 05:22:56;;;;;;;7.80;7.10;;;;;;;-144.30;35.09;83206.41;5133534;27;20194;-58
2023/06/03 05:25:23;;;;;;;9.10;8.27;;;;;;;-144.30;34.98;83101.13;5133316;27;20663;-59
2023/06/03 05:27:50;;;;;;;7.90;7.20;;;;;;;-144.30;34.60;83091.19;5133682;27;20300;-59
2023/06/03 05:30:17;;;;;;;7.70;7.03;;;;;;;-144.30;34.25;83037.56;5133198;27;20194;-58
2023/06/03 05:32:44;;;;;;;7.85;7.00;;;;;;;-144.30;34.36;83045.50;5133044;27;20198;-57
2023/06/03 05:35:11;;;;;;;11.65;6.95;;;;;;;-144.30;34.66;83150.78;5132905;27;20226;-58
2023/06/03 05:37:39;;;;;;;16.85;7.38;;;;;;;-144.30;35.11;83119.00;5132897;27;20214;-58
2023/06/03 05:40:07;;;;;;;9.93;6.55;;;;;;;-144.30;35.00;83107.09;5132734;27;20200;-56
2023/06/03 05:42:35;;;;;;;10.48;6.72;;;;;;;-144.30;35.34;83230.25;5134171;27;20610;-59
2023/06/03 05:45:03;;;;;;;7.50;6.82;;;;;;;-144.30;35.66;83289.84;5133125;27;20285;-61
2023/06/03 05:47:30;;;;;;;8.27;6.88;;;;;;;-144.30;36.59;83345.50;5132516;27;20388;-59
2023/06/03 05:49:57;;;;;;;7.78;6.97;;;;;;;-144.30;36.85;83367.34;5133242;27;20651;-58
2023/06/03 05:52:24;;;;;;;8.80;7.50;;;;;;;-144.30;35.75;83186.56;5133168;27;20232;-62
2023/06/03 05:54:53;;;;;;;8.25;6.50;;;;;;;-144.30;35.00;83057.41;5133013;27;20221;-59
2023/06/03 05:57:20;;;;;;;8.95;6.97;;;;;;;-144.30;33.70;82972.00;5133012;27;20212;-59
2023/06/03 05:59:48;;;;;;;7.40;6.72;;;;;;;-144.30;33.30;82860.75;5133243;27;20575;-57
2023/06/03 06:02:15;;;;;;;6.60;6.00;;;;;;;-144.30;32.66;82727.66;5132027;27;20194;-57
2023/06/03 06:04:42;;;;;;;9.13;7.13;;;;;;;-144.30;32.58;82721.69;5131530;27;20221;-57
2023/06/03 06:07:09;;;;;;;9.15;6.95;;;;;;;-144.30;32.26;82699.84;5130456;27;20196;-58
2023/06/03 06:09:36;;;;;;;7.32;6.10;;;;;;;-144.30;32.30;82703.81;5132814;27;20211;-59
2023/06/03 06:12:05;;;;;;;8.75;6.22;;;;;;;-144.30;32.19;82711.78;5132449;27;20194;-57
2023/06/03 06:14:32;;;;;;;8.23;5.93;;;;;;;-144.30;32.51;82807.13;5132215;27;20258;-57
2023/06/03 06:16:59;;;;;;;8.15;6.68;;;;;;;-144.30;32.56;82797.19;5132440;27;20602;-59
2023/06/03 06:19:26;;;;;;;6.93;6.43;;;;;;;-144.30;32.23;82737.59;5132697;27;20233;-59
2023/06/03 06:21:53;;;;;;;9.82;7.07;;;;;;;-144.30;31.47;82660.13;5131536;27;20190;-59
2023/06/03 06:24:20;;;;;;;6.93;6.20;;;;;;;-144.30;31.27;82638.28;5130346;27;20550;-59
2023/06/03 06:26:48;;;;;;;6.53;5.90;;;;;;;-144.30;31.02;82578.69;5131357;27;20295;-59
2023/06/03 06:29:17;;;;;;;7.07;6.45;;;;;;;-144.30;31.23;82560.81;5131352;27;20579;-59
2023/06/03 06:31:45;;;;;;;8.75;5.97;;;;;;;-144.30;31.41;82685.94;5131772;27;20189;-58
2023/06/03 06:34:17;;;;;;;6.60;6.00;;;;;;;-144.30;31.71;82723.69;5131235;27;20276;-58
2023/06/03 06:36:49;;;;;;;6.50;5.93;;;;;;;-144.30;31.71;82757.47;5131263;27;20220;-57
2023/06/03 06:39:46;;;;;;;9.38;7.15;;;;;;;-144.30;31.93;82793.22;5131306;27;20186;-59
2023/06/03 06:42:15;;;;;;;6.72;6.13;;;;;;;-144.30;31.95;82737.59;5129485;27;20246;-59
2023/06/03 06:44:48;;;;;;;10.60;7.13;;;;;;;-144.30;31.76;82749.50;5131704;27;20193;-58
2023/06/03 06:47:20;;;;;;;6.80;6.10;;;;;;;-144.30;31.98;82731.63;5131682;27;20252;-58
2023/06/03 06:49:47;;;;;;;7.55;5.97;;;;;;;-144.30;32.41;82805.13;5131724;27;20200;-58
2023/06/03 06:52:15;;;;;;;7.20;6.50;;;;;;;-144.30;32.69;82852.81;5131832;27;20633;-59
2023/06/03 06:54:42;;;;;;;9.65;6.40;;;;;;;-144.30;33.08;82932.28;5131462;27;20198;-57
2023/06/03 06:57:09;;;;;;;9.32;6.07;;;;;;;-144.30;33.24;82975.97;5130644;27;20276;-57
2023/06/03 06:59:36;;;;;;;6.57;5.97;;;;;;;-144.30;33.32;82985.91;5131028;27;20194;-57
2023/06/03 07:02:05;;;;;;;8.00;7.00;;;;;;;-144.30;33.54;83001.78;5126614;27;20195;-57
2023/06/03 07:04:32;;;;;;;13.63;6.88;;;;;;;-144.30;33.33;82932.28;5128023;28;20599;-59
2023/06/03 07:06:58;;;;;;;7.43;6.57;;;;;;;-144.30;33.55;82981.94;5130481;28;20198;-58
2023/06/03 07:09:25;;;;;;;6.53;6.03;;;;;;;-144.30;33.54;82999.81;5130931;28;20193;-58
2023/06/03 07:11:52;;;;;;;8.50;6.47;;;;;;;-144.30;33.57;82958.09;5130570;27;20204;-58
2023/06/03 07:14:19;;;;;;;6.45;5.88;;;;;;;-144.30;33.61;83055.44;5130823;27;20272;-57
2023/06/03 07:16:48;;;;;;;7.03;6.53;;;;;;;-144.30;33.26;82956.09;5126895;27;20236;-57
2023/06/03 07:19:16;;;;;;;9.02;8.20;;;;;;;-144.30;33.48;82928.28;5121734;27;20238;-57
2023/06/03 07:21:43;;;;;;;13.55;12.15;;;;;;;-144.30;33.75;82973.97;5132630;27;20208;-58
2023/06/03 07:24:12;;;;;;;9.90;6.93;;;;;;;-144.30;33.46;82944.19;5133760;27;20189;-58
2023/06/03 07:26:40;;;;;;;8.23;6.78;;;;;;;-144.30;33.18;82785.28;5134604;27;20615;-60
2023/06/03 07:29:07;;;;;;;7.05;6.55;;;;;;;-144.30;33.09;82852.81;5134623;27;20194;-59
2023/06/03 07:31:36;;;;;;;7.70;7.00;;;;;;;-144.30;32.40;82805.13;5135335;27;20667;-59
2023/06/03 07:34:04;;;;;;;10.10;7.90;;;;;;;-144.30;32.51;82582.66;5132807;27;20193;-59
2023/06/03 07:36:34;;;;;;;7.93;6.95;;;;;;;-144.30;32.04;82620.41;5135387;27;20214;-60
2023/06/03 07:39:04;;;;;;;19.58;8.60;;;;;;;-144.30;32.24;82650.19;5132737;27;20294;-59
2023/06/03 07:41:39;;;;;;;12.00;10.65;;;;;;;-144.30;31.84;82602.53;5134408;27;20582;-59
2023/06/03 07:44:07;;;;;;;9.00;8.25;;;;;;;-144.30;31.81;82544.91;5132074;27;20627;-59
2023/06/03 07:46:43;;;;;;;12.32;6.95;;;;;;;-144.30;32.15;82594.56;5133859;27;20230;-59
2023/06/03 07:49:11;;;;;;;9.95;8.57;;;;;;;-144.30;32.15;82652.19;5119768;27;20213;-59
2023/06/03 07:51:45;;;;;;;9.35;8.07;;;;;;;-144.30;31.95;82564.78;5132593;27;20279;-57
2023/06/03 07:54:12;;;;;;;11.77;7.97;;;;;;;-144.30;31.85;82572.72;5134034;27;20283;-58
2023/06/03 07:56:39;;;;;;;7.38;6.60;;;;;;;-144.30;31.37;82457.53;5133942;27;20602;-57
2023/06/03 07:59:09;;;;;;;11.30;7.82;;;;;;;-144.30;30.77;82302.59;5133614;27;20271;-58
2023/06/03 08:01:36;;;;;;;6.97;6.47;;;;;;;-144.30;30.60;82324.44;5133957;27;20218;-57
2023/06/03 08:04:05;;;;;;;8.38;7.28;;;;;;;-144.30;30.99;82423.75;5133578;27;20229;-57
2023/06/03 08:06:36;;;;;;;8.43;6.97;;;;;;;-144.30;30.84;82393.97;5133964;27;20717;-58
2023/06/03 08:09:05;;;;;;;7.55;6.95;;;;;;;-144.30;30.72;82300.63;5134071;27;20298;-58
2023/06/03 08:11:36;;;;;;;7.45;6.82;;;;;;;-144.30;30.59;82260.88;5133390;27;20225;-57
2023/06/03 08:14:03;;;;;;;11.45;10.38;;;;;;;-144.30;30.27;82743.56;5133292;27;20301;-57
2023/06/03 08:16:34;;;;;;;7.97;7.20;;;;;;;-144.30;30.40;82306.56;5133461;27;20320;-57
2023/06/03 08:19:01;;;;;;;7.13;6.45;;;;;;;-144.30;30.69;82368.13;5133640;27;20361;-57
2023/06/03 08:21:30;;;;;;;11.43;6.72;;;;;;;-144.30;31.48;82501.22;5133768;27;20221;-58
2023/06/03 08:23:57;;;;;;;6.40;5.95;;;;;;;-144.30;31.91;82544.91;5133801;27;20648;-58
2023/06/03 08:26:26;;;;;;;7.45;6.65;;;;;;;-144.30;31.81;82560.81;5133494;27;20220;-58
2023/06/03 08:28:53;;;;;;;10.98;6.90;;;;;;;-144.30;31.74;82757.47;5129897;27;20222;-58
2023/06/03 08:31:20;;;;;;;7.55;6.80;;;;;;;-144.30;31.38;82499.22;5132181;27;20221;-59
2023/06/03 08:33:47;;;;;;;10.02;6.78;;;;;;;-144.30;31.59;82533.00;5132674;27;20222;-59
2023/06/03 08:36:14;;;;;;;8.05;7.28;;;;;;;-144.30;31.77;82592.59;5133672;27;20713;-58
2023/06/03 08:38:41;;;;;;;7.97;7.25;;;;;;;-144.30;31.52;82668.06;5133461;27;20763;-57
2023/06/03 08:41:08;;;;;;;10.18;6.65;;;;;;;-144.30;31.46;82674.03;5142254;27;20228;-59
2023/06/03 08:43:44;;;;;;;9.90;7.07;;;;;;;-144.30;31.71;82771.38;5155109;27;20197;-59
2023/06/03 08:46:22;;;;;;;7.13;6.47;;;;;;;-144.30;32.07;82789.25;5154578;27;20694;-57
2023/06/03 08:49:01;;;;;;;6.95;6.05;;;;;;;-144.30;32.20;82850.81;5139650;27;20768;-58
2023/06/03 08:51:28;;;;;;;8.00;6.90;;;;;;;-144.30;32.92;82868.69;5133858;27;20593;-57
2023/06/03 08:53:55;;;;;;;6.90;6.20;;;;;;;-144.30;32.70;82928.28;5133417;27;20197;-57
2023/06/03 08:56:23;;;;;;;8.88;7.13;;;;;;;-144.30;33.33;82946.16;5131142;27;20221;-58
2023/06/03 08:58:56;;;;;;;7.93;6.50;;;;;;;-144.30;33.53;83015.69;5131234;27;20189;-59
2023/06/03 09:01:28;;;;;;;7.78;7.10;;;;;;;-144.30;33.86;82989.88;5132479;27;20595;-59
2023/06/03 09:03:56;;;;;;;11.77;7.20;;;;;;;-144.30;33.83;83059.41;5129521;27;20194;-58
2023/06/03 09:06:23;;;;;;;8.80;6.50;;;;;;;-144.30;33.28;83065.38;5131383;27;20740;-58
2023/06/03 09:08:51;;;;;;;7.43;5.95;;;;;;;-144.30;33.41;83107.09;5127431;27;20200;-58
2023/06/03 09:11:20;;;;;;;7.30;6.28;;;;;;;-144.30;33.43;83192.50;5133327;27;20198;-57
2023/06/03 09:13:47;;;;;;;10.18;6.13;;;;;;;-144.30;33.55;83210.38;5131886;27;20644;-59
2023/06/03 09:16:16;;;;;;;7.28;6.63;;;;;;;-144.30;33.60;83206.41;5132137;27;20691;-59
2023/06/03 09:18:44;;;;;;;7.93;7.00;;;;;;;-144.30;33.65;83214.38;5132091;27;20204;-59
2023/06/03 09:21:12;;;;;;;9.70;6.57;;;;;;;-144.30;33.96;83291.84;5128677;27;20238;-57
2023/06/03 09:23:40;;;;;;;8.80;6.45;;;;;;;-144.30;34.08;83212.38;5131011;27;20663;-58
2023/06/03 09:26:07;;;;;;;7.82;7.03;;;;;;;-144.30;34.02;83190.53;5129366;27;20263;-57
2023/06/03 09:28:35;;;;;;;7.28;6.78;;;;;;;-144.30;34.23;83202.44;5132041;27;20190;-58
2023/06/03 09:31:01;;;;;;;8.07;7.07;;;;;;;-144.30;33.96;83202.44;5130686;27;20614;-57
2023/06/03 09:33:31;;;;;;;8.10;6.47;;;;;;;-144.30;33.89;83236.22;5132767;27;20266;-58
2023/06/03 09:36:08;;;;;;;11.98;6.75;;;;;;;-144.30;34.05;83236.22;5130283;27;20222;-59
2023/06/03 09:38:52;;;;;;;8.73;6.18;;;;;;;-144.30;33.32;83218.34;5128893;27;20225;-59
2023/06/03 09:41:20;;;;;;;6.80;6.20;;;;;;;-144.30;32.92;83138.88;5124719;27;20201;-59
2023/06/03 09:43:56;;;;;;;7.32;5.70;;;;;;;-144.30;32.85;83057.41;5131900;27;20208;-59
2023/06/03 09:46:26;;;;;;;8.98;6.32;;;;;;;-144.30;32.90;83119.00;5125045;27;20231;-59
2023/06/03 09:48:55;;;;;;;14.70;6.30;;;;;;;-144.30;32.95;83124.97;5131667;27;20693;-58
2023/06/03 09:51:39;;;;;;;6.65;6.10;;;;;;;-144.30;33.15;83134.91;5132119;27;20201;-58
2023/06/03 09:54:11;;;;;;;7.70;6.47;;;;;;;-144.30;32.77;83204.44;5127911;27;20712;-58
2023/06/03 09:56:38;;;;;;;7.35;6.57;;;;;;;-144.30;33.36;83158.75;5131940;27;20214;-58
2023/06/03 09:59:15;;;;;;;8.98;7.20;;;;;;;-144.30;34.40;83162.72;5131211;27;20214;-58
2023/06/03 10:01:42;;;;;;;7.00;6.38;;;;;;;-144.30;33.72;83172.66;5128582;27;20345;-57
2023/06/03 10:04:10;;;;;;;6.55;5.93;;;;;;;-144.30;33.95;83242.19;5120205;27;20321;-56
2023/06/03 10:06:38;;;;;;;9.80;6.07;;;;;;;-144.30;34.00;83226.28;5131569;27;20224;-57
2023/06/03 10:09:22;;;;;;;7.45;6.20;;;;;;;-144.30;33.77;83182.56;5131354;27;20253;-56
2023/06/03 10:11:51;;;;;;;6.65;6.15;;;;;;;-144.30;34.11;83214.38;5129337;27;20210;-58
2023/06/03 10:14:25;;;;;;;9.45;6.65;;;;;;;-144.30;34.00;83198.47;5132064;27;20225;-58
2023/06/03 10:17:08;;;;;;;6.03;5.40;;;;;;;-144.30;34.13;83230.25;5119954;27;20632;-58
2023/06/03 10:19:38;;;;;;;6.00;5.70;;;;;;;-144.30;33.58;83206.41;5131659;27;20285;-57
2023/06/03 10:22:07;;;;;;;6.13;5.72;;;;;;;-144.30;33.72;83258.06;5131520;27;20276;-56
2023/06/03 10:24:36;;;;;;;5.80;5.30;;;;;;;-144.30;33.55;83258.06;5131262;27;20202;-57
2023/06/03 10:27:03;;;;;;;6.35;5.95;;;;;;;-144.30;34.05;83192.50;5131907;27;20636;-57
2023/06/03 10:29:31;;;;;;;6.20;5.75;;;;;;;-144.30;34.13;83186.56;5131778;27;20282;-57
2023/06/03 10:32:02;;;;;;;7.20;6.25;;;;;;;-144.30;34.04;83099.13;5130119;27;20284;-56
2023/06/03 10:34:30;;;;;;;7.45;6.22;;;;;;;-144.30;34.25;83244.16;5131359;27;20610;-57
2023/06/03 10:37:01;;;;;;;6.63;5.90;;;;;;;-144.30;34.35;83226.28;5131038;27;20226;-57
2023/06/03 10:39:29;;;;;;;7.93;6.80;;;;;;;-144.30;34.78;83277.94;5131253;27;20243;-57
2023/06/03 10:41:58;;;;;;;6.35;5.55;;;;;;;-144.30;34.84;83337.53;5131606;27;20201;-57
2023/06/03 10:44:26;;;;;;;8.48;6.85;;;;;;;-144.30;34.62;83357.41;5130879;27;20198;-57
2023/06/03 10:46:57;;;;;;;6.40;5.88;;;;;;;-144.30;34.89;83299.78;5131533;27;20233;-57
2023/06/03 10:49:28;;;;;;;5.88;5.40;;;;;;;-144.30;35.58;83385.22;5131491;27;20204;-57
2023/06/03 10:52:14;;;;;;;6.10;5.30;;;;;;;-144.30;35.70;83452.78;5131163;27;20230;-57
2023/06/03 10:54:49;;;;;;;13.85;6.05;;;;;;;-144.30;35.92;83440.84;5131805;27;20209;-58
2023/06/03 10:57:20;;;;;;;8.85;6.32;;;;;;;-144.30;36.34;83434.91;5131544;27;20235;-58
2023/06/03 10:59:48;;;;;;;6.20;5.63;;;;;;;-144.30;36.66;83409.06;5131604;27;20209;-56
2023/06/03 11:02:16;;;;;;;6.95;6.50;;;;;;;-144.30;36.58;83452.78;5131664;27;20207;-57
2023/06/03 11:04:43;;;;;;;7.10;6.50;;;;;;;-144.30;36.60;83333.56;5131487;27;20680;-57
2023/06/03 11:07:43;;;;;;;6.68;5.80;;;;;;;-144.30;36.94;83381.25;5131422;27;20196;-57
2023/06/03 11:10:48;;;;;;;6.75;6.25;;;;;;;-144.30;36.71;83353.44;5131544;27;20207;-56
2023/06/03 11:13:44;;;;;;;8.15;5.88;;;;;;;-144.30;36.54;83317.66;5120596;27;20290;-57
2023/06/03 11:16:11;;;;;;;5.85;5.55;;;;;;;-144.30;36.63;83361.38;5131437;27;20294;-55
2023/06/03 11:18:38;;;;;;;5.70;5.30;;;;;;;-144.30;36.58;83397.16;5131490;27;20207;-57
2023/06/03 11:21:05;;;;;;;6.03;5.45;;;;;;;-144.30;36.77;83397.16;5131528;27;20213;-57
2023/06/03 11:23:45;;;;;;;5.80;5.32;;;;;;;-144.30;37.11;83450.78;5131314;27;20299;-56